Toomsuba, Mississippi
Current Conditions -  °F | °C
As of 6:56 AM on Friday 24 Oct 2014 (Local Time) from KNMM Reporting Station
Broken Clouds Broken Clouds  
Wind Chill: 48°   Ceiling: 17000
Heat Index: 48°   Visibility: 10mi
Dew Point: 46°   Wind: 0mph
Humidity: 93%   Direction: NA
Pressure: 30.11"   Gusts: NA
Location:  32.42°N, 88.51°W
Report Text: KNMM 241156Z 00000KT 10SM BKN170 09/08 A3011 RMK AO2 SLP205 T00890078 10106 20078 51006 $
Loading
Personal Weather Stations






























Interactive Weather Map
Tropical Storm Tracking
New forecast layout! Learn more

10-Day Weather Forecast

Advertisements
Track Severe Weather on mobile